Time;durP1;ratioP1;P1;durP2;ratioP2;P2;SDS_P1;SDS_P2;PMS_P1;PMS_P2;Temp;Humidity;BMP_temperature;BMP_pressure;BME280_temperature;BME280_humidity;BME280_pressure;Samples;Min_cycle;Max_cycle;Signal;HPM_P1;HPM_P2
2023/09/08 00:08:21;;;;;;;11.1;6.9;;;;;;;13.15;89.27;;;;;
2023/09/08 00:19:21;;;;;;;11.1;6.9;;;;;;;13.22;90.25;;;;;
2023/09/08 00:30:21;;;;;;;11.1;6.9;;;;;;;13.19;89.82;;;;;
2023/09/08 00:40:21;;;;;;;11;6.8;;;;;;;13.07;89.32;;;;;
2023/09/08 00:51:21;;;;;;;11;6.8;;;;;;;12.98;89.45;;;;;
2023/09/08 01:02:21;;;;;;;11;6.8;;;;;;;12.86;89.64;;;;;
2023/09/08 01:12:21;;;;;;;11.2;6.3;;;;;;;12.8;90.19;;;;;
2023/09/08 01:22:21;;;;;;;11.2;6.3;;;;;;;12.81;90.19;;;;;
2023/09/08 01:33:21;;;;;;;11.2;6.3;;;;;;;12.72;89.78;;;;;
2023/09/08 01:44:21;;;;;;;10.2;6.1;;;;;;;12.56;90.99;;;;;
2023/09/08 01:54:21;;;;;;;10.2;6.1;;;;;;;12.55;91.08;;;;;
2023/09/08 02:04:21;;;;;;;9.5;5.7;;;;;;;12.51;91.12;;;;;
2023/09/08 02:14:21;;;;;;;9.5;5.7;;;;;;;12.48;91.72;;;;;
2023/09/08 02:25:21;;;;;;;9.5;5.7;;;;;;;12.4;91.26;;;;;
2023/09/08 02:35:21;;;;;;;9;5.6;;;;;;;12.29;90.72;;;;;
2023/09/08 02:45:21;;;;;;;9;5.6;;;;;;;12.21;91.25;;;;;
2023/09/08 02:56:21;;;;;;;9;5.6;;;;;;;12.26;92.51;;;;;
2023/09/08 03:06:21;;;;;;;10.7;6.2;;;;;;;12.33;92.77;;;;;
2023/09/08 03:17:21;;;;;;;10.7;6.2;;;;;;;12.27;93.01;;;;;
2023/09/08 03:28:21;;;;;;;10.7;6.2;;;;;;;12.21;94.14;;;;;
2023/09/08 03:38:25;;;;;;;10.4;6.4;;;;;;;12.24;93.44;;;;;
2023/09/08 03:49:21;;;;;;;10.4;6.4;;;;;;;12.21;92.74;;;;;
2023/09/08 04:00:22;;;;;;;10.4;6.4;;;;;;;11.97;93.71;;;;;
2023/09/08 04:11:21;;;;;;;8.9;5.8;;;;;;;12.06;93.24;;;;;
2023/09/08 04:21:21;;;;;;;8.9;5.8;;;;;;;12.09;92.89;;;;;
2023/09/08 04:32:21;;;;;;;8.9;5.8;;;;;;;12.17;92.34;;;;;
2023/09/08 04:43:21;;;;;;;10.7;6.4;;;;;;;12.18;92.53;;;;;
2023/09/08 04:53:21;;;;;;;10.7;6.4;;;;;;;12.4;92.24;;;;;
2023/09/08 05:03:21;;;;;;;10.7;6.4;;;;;;;12.56;92.33;;;;;
2023/09/08 05:13:26;;;;;;;12.7;6.9;;;;;;;12.87;92.27;;;;;
2023/09/08 05:23:21;;;;;;;12.7;6.9;;;;;;;13.29;91.93;;;;;
2023/09/08 05:34:21;;;;;;;12.1;8;;;;;;;13.5;91.6;;;;;
2023/09/08 05:44:21;;;;;;;12.1;8;;;;;;;13.95;91.69;;;;;
2023/09/08 05:55:21;;;;;;;12.1;8;;;;;;;14.45;91.51;;;;;
2023/09/08 06:06:21;;;;;;;14.3;11;;;;;;;14.92;91.18;;;;;
2023/09/08 06:17:21;;;;;;;14.3;11;;;;;;;15.44;90.23;;;;;
2023/09/08 06:28:21;;;;;;;14.3;11;;;;;;;15.85;88.63;;;;;
2023/09/08 06:39:21;;;;;;;17;12.5;;;;;;;16.42;88.3;;;;;
2023/09/08 06:49:21;;;;;;;17;12.5;;;;;;;16.92;87.63;;;;;
2023/09/08 06:59:21;;;;;;;17;12.5;;;;;;;17.09;86.77;;;;;
2023/09/08 07:10:21;;;;;;;21.5;16.5;;;;;;;17.41;86.35;;;;;
2023/09/08 07:20:21;;;;;;;21.5;16.5;;;;;;;17.81;85.15;;;;;
2023/09/08 07:30:21;;;;;;;21.5;16.5;;;;;;;18.09;83.83;;;;;
2023/09/08 07:41:21;;;;;;;18.3;15.7;;;;;;;18.39;83.24;;;;;
2023/09/08 07:51:21;;;;;;;18.3;15.7;;;;;;;18.86;82.45;;;;;
2023/09/08 08:02:21;;;;;;;18.3;15.7;;;;;;;19.41;80.83;;;;;
2023/09/08 08:13:21;;;;;;;19.9;14.3;;;;;;;19.8;79.19;;;;;
2023/09/08 08:23:21;;;;;;;19.9;14.3;;;;;;;20.28;77.85;;;;;
2023/09/08 08:34:21;;;;;;;19.2;13;;;;;;;20.69;75.5;;;;;
2023/09/08 08:44:21;;;;;;;19.2;13;;;;;;;21.06;74.47;;;;;
2023/09/08 08:55:21;;;;;;;19.2;13;;;;;;;21.37;73.22;;;;;
2023/09/08 09:05:21;;;;;;;13.8;9.2;;;;;;;21.74;71.98;;;;;
2023/09/08 09:16:21;;;;;;;13.8;9.2;;;;;;;22.17;70.5;;;;;
2023/09/08 09:26:21;;;;;;;13.8;9.2;;;;;;;22.43;69.12;;;;;
2023/09/08 09:37:21;;;;;;;11.6;8.5;;;;;;;22.63;67.57;;;;;
2023/09/08 09:48:22;;;;;;;11.6;8.5;;;;;;;23.13;68.2;;;;;
2023/09/08 09:59:21;;;;;;;11.6;8.5;;;;;;;23.33;66.26;;;;;
2023/09/08 10:10:21;;;;;;;11.8;8.9;;;;;;;23.6;66.81;;;;;
2023/09/08 10:20:21;;;;;;;11.8;8.9;;;;;;;23.76;66.06;;;;;
2023/09/08 10:31:21;;;;;;;11.8;8.9;;;;;;;23.95;63.06;;;;;
2023/09/08 10:41:21;;;;;;;12.5;9;;;;;;;24.54;64.84;;;;;
2023/09/08 10:52:21;;;;;;;12.5;9;;;;;;;24.57;62.35;;;;;
2023/09/08 11:03:21;;;;;;;12.5;9;;;;;;;24.86;62.11;;;;;
2023/09/08 11:13:21;;;;;;;11.5;7.6;;;;;;;24.56;63.81;;;;;
2023/09/08 11:24:21;;;;;;;11.5;7.6;;;;;;;24.65;63.1;;;;;
2023/09/08 11:34:21;;;;;;;11.4;8.4;;;;;;;25.03;61.04;;;;;
2023/09/08 11:44:21;;;;;;;11.4;8.4;;;;;;;25.15;61.53;;;;;
2023/09/08 11:54:21;;;;;;;11.4;8.4;;;;;;;25.35;59.74;;;;;
2023/09/08 12:04:21;;;;;;;12.2;8.2;;;;;;;25.36;59.23;;;;;
2023/09/08 12:14:21;;;;;;;12.2;8.2;;;;;;;25.58;57.82;;;;;
2023/09/08 12:24:23;;;;;;;12.2;8.2;;;;;;;25.57;57.42;;;;;
2023/09/08 12:35:22;;;;;;;10.8;6.9;;;;;;;25.75;54.24;;;;;
2023/09/08 12:45:22;;;;;;;10.8;6.9;;;;;;;25.88;55.39;;;;;
2023/09/08 12:55:21;;;;;;;10.8;6.9;;;;;;;25.93;56.1;;;;;
2023/09/08 13:06:22;;;;;;;9.9;7;;;;;;;25.9;55.9;;;;;
2023/09/08 13:17:22;;;;;;;9.9;7;;;;;;;25.98;55.14;;;;;
2023/09/08 13:28:21;;;;;;;9.9;7;;;;;;;26.41;53.6;;;;;
2023/09/08 13:38:21;;;;;;;14.8;6.5;;;;;;;26.31;55.21;;;;;
2023/09/08 13:48:21;;;;;;;14.8;6.5;;;;;;;26.75;51.48;;;;;
2023/09/08 13:59:21;;;;;;;14.8;6.5;;;;;;;26.66;53.69;;;;;
2023/09/08 14:09:21;;;;;;;10.5;6.8;;;;;;;26.78;50.79;;;;;
2023/09/08 14:19:21;;;;;;;10.5;6.8;;;;;;;27.05;50.3;;;;;
2023/09/08 14:29:22;;;;;;;10.5;6.8;;;;;;;27.32;50.63;;;;;
2023/09/08 14:40:21;;;;;;;8.6;5.6;;;;;;;26.82;53.07;;;;;
2023/09/08 14:50:22;;;;;;;8.6;5.6;;;;;;;27.26;51;;;;;
2023/09/08 15:00:22;;;;;;;8.6;5.6;;;;;;;27.29;50.36;;;;;
2023/09/08 15:11:21;;;;;;;11;6.2;;;;;;;28.4;50.12;;;;;
2023/09/08 15:21:25;;;;;;;11;6.2;;;;;;;29.75;46.03;;;;;
2023/09/08 15:32:21;;;;;;;11;6.2;;;;;;;31.32;41.72;;;;;
2023/09/08 15:42:21;;;;;;;9.1;5;;;;;;;31.51;41.14;;;;;
2023/09/08 15:53:21;;;;;;;9.1;5;;;;;;;32.42;39.77;;;;;
2023/09/08 16:04:21;;;;;;;9.1;5;;;;;;;32.04;40.73;;;;;
2023/09/08 16:15:21;;;;;;;8.1;4.8;;;;;;;32.79;40.09;;;;;
2023/09/08 16:26:21;;;;;;;8.1;4.8;;;;;;;31.87;41.49;;;;;
2023/09/08 16:36:22;;;;;;;10.9;5.8;;;;;;;29.75;44.64;;;;;
2023/09/08 16:47:25;;;;;;;10.9;5.8;;;;;;;27.45;49.47;;;;;
2023/09/08 16:58:23;;;;;;;10.9;5.8;;;;;;;25.43;56.9;;;;;
2023/09/08 17:08:22;;;;;;;8.8;6;;;;;;;24.13;60.33;;;;;
2023/09/08 17:19:21;;;;;;;8.8;6;;;;;;;22.94;64.23;;;;;
2023/09/08 17:29:22;;;;;;;8.8;6;;;;;;;22.07;66.88;;;;;
2023/09/08 17:40:22;;;;;;;11.9;7.1;;;;;;;21.48;69.34;;;;;
2023/09/08 17:50:22;;;;;;;11.9;7.1;;;;;;;20.79;70.94;;;;;
2023/09/08 18:01:21;;;;;;;11.9;7.1;;;;;;;20.18;73.04;;;;;
2023/09/08 18:11:21;;;;;;;13.1;9;;;;;;;19.79;73.89;;;;;
2023/09/08 18:21:22;;;;;;;13.1;9;;;;;;;19.51;76.17;;;;;
2023/09/08 18:32:22;;;;;;;13.1;9;;;;;;;19.2;77.47;;;;;
2023/09/08 18:42:22;;;;;;;37.7;27.1;;;;;;;19.06;77.57;;;;;
2023/09/08 18:53:21;;;;;;;37.7;27.1;;;;;;;18.83;77.28;;;;;
2023/09/08 19:03:21;;;;;;;37.7;27.1;;;;;;;18.62;77.77;;;;;
2023/09/08 19:13:22;;;;;;;104.2;81.7;;;;;;;18.29;77.4;;;;;
2023/09/08 19:24:22;;;;;;;104.2;81.7;;;;;;;17.96;78.18;;;;;
2023/09/08 19:35:22;;;;;;;36.4;28.3;;;;;;;17.6;79.24;;;;;
2023/09/08 19:45:24;;;;;;;;;;;;;;;;;;;;;
2023/09/08 19:56:22;;;;;;;36.4;28.3;;;;;;;16.98;80.14;;;;;
2023/09/08 20:07:22;;;;;;;13;10;;;;;;;16.75;81.51;;;;;
2023/09/08 20:17:22;;;;;;;13;10;;;;;;;16.54;82.06;;;;;
2023/09/08 20:28:22;;;;;;;13;10;;;;;;;16.38;82.9;;;;;
2023/09/08 20:39:22;;;;;;;13.9;11.2;;;;;;;16.17;84.44;;;;;
2023/09/08 20:50:24;;;;;;;13.9;11.2;;;;;;;16.01;85.03;;;;;
2023/09/08 21:00:23;;;;;;;13.9;11.2;;;;;;;15.99;85.62;;;;;
2023/09/08 21:11:22;;;;;;;17.3;13.4;;;;;;;15.86;85.98;;;;;
2023/09/08 21:22:22;;;;;;;17.3;13.4;;;;;;;15.77;86.75;;;;;
2023/09/08 21:32:22;;;;;;;17.3;13.4;;;;;;;15.72;86.27;;;;;
2023/09/08 21:42:22;;;;;;;14.9;12.1;;;;;;;15.54;87.65;;;;;
2023/09/08 21:53:22;;;;;;;14.9;12.1;;;;;;;15.53;89.01;;;;;
2023/09/08 22:04:22;;;;;;;14.9;12.1;;;;;;;15.41;88.69;;;;;
2023/09/08 22:14:22;;;;;;;17;13.2;;;;;;;15.31;88.61;;;;;
2023/09/08 22:24:22;;;;;;;17;13.2;;;;;;;15.22;88.97;;;;;
2023/09/08 22:34:22;;;;;;;17;13.2;;;;;;;15.05;88.54;;;;;
2023/09/08 22:45:22;;;;;;;15;12.2;;;;;;;14.93;88.58;;;;;
2023/09/08 22:55:22;;;;;;;15;12.2;;;;;;;14.8;88.95;;;;;
2023/09/08 23:05:22;;;;;;;16.3;13.4;;;;;;;14.69;89.28;;;;;
2023/09/08 23:16:22;;;;;;;16.3;13.4;;;;;;;14.48;90.28;;;;;
2023/09/08 23:27:22;;;;;;;16.3;13.4;;;;;;;14.37;90.79;;;;;
2023/09/08 23:38:22;;;;;;;;;;;;;;;;;;;;;
2023/09/08 23:48:22;;;;;;;16;12;;;;;;;14.45;90.84;;;;;
2023/09/08 23:59:22;;;;;;;16;12;;;;;;;14.36;90.29;;;;;
